createdAt,value
2019-05-21T00:01:03.902Z,15.60
2019-05-21T00:03:29.010Z,15.50
2019-05-21T00:05:54.246Z,15.50
2019-05-21T00:08:19.370Z,15.50
2019-05-21T00:10:44.516Z,15.40
2019-05-21T00:13:09.651Z,15.40
2019-05-21T00:15:34.775Z,15.40
2019-05-21T00:17:59.931Z,15.40
2019-05-21T00:20:25.085Z,15.30
2019-05-21T00:22:50.232Z,15.30
2019-05-21T00:25:17.362Z,15.30
2019-05-21T00:27:42.831Z,15.20
2019-05-21T00:30:43.522Z,15.20
2019-05-21T00:33:44.063Z,15.20
2019-05-21T00:36:45.416Z,15.10
2019-05-21T00:39:46.272Z,15.10
2019-05-21T00:42:10.050Z,15.00
2019-05-21T00:44:38.601Z,15.00
2019-05-21T00:47:05.739Z,14.90
2019-05-21T00:49:32.143Z,15.00
2019-05-21T00:52:07.117Z,14.90
2019-05-21T00:54:24.302Z,14.90
2019-05-21T00:56:49.494Z,14.90
2019-05-21T00:59:14.628Z,14.90
2019-05-21T01:01:40.073Z,14.80
2019-05-21T01:04:06.208Z,14.80
2019-05-21T01:06:31.560Z,14.70
2019-05-21T01:08:57.389Z,14.70
2019-05-21T01:11:23.474Z,14.70
2019-05-21T01:13:48.694Z,14.70
2019-05-21T01:16:13.830Z,14.60
2019-05-21T01:18:39.258Z,14.60
2019-05-21T01:21:05.259Z,14.60
2019-05-21T01:23:30.402Z,14.60
2019-05-21T01:25:55.531Z,14.50
2019-05-21T01:28:20.676Z,14.60
2019-05-21T01:30:45.812Z,14.50
2019-05-21T01:33:10.914Z,14.50
2019-05-21T01:35:36.018Z,14.50
2019-05-21T01:38:01.412Z,14.50
2019-05-21T01:40:26.563Z,14.40
2019-05-21T01:42:51.985Z,14.40
2019-05-21T01:45:17.132Z,14.40
2019-05-21T01:47:42.243Z,14.40
2019-05-21T01:50:07.435Z,14.40
2019-05-21T01:52:32.562Z,14.30
2019-05-21T01:54:59.200Z,14.30
2019-05-21T01:57:24.631Z,14.30
2019-05-21T01:59:49.759Z,14.30
2019-05-21T02:02:14.894Z,14.30
2019-05-21T02:04:40.026Z,14.30
2019-05-21T02:07:05.169Z,14.20
2019-05-21T02:09:32.137Z,14.30
2019-05-21T02:11:57.270Z,14.20
2019-05-21T02:14:22.899Z,14.20
2019-05-21T02:16:48.033Z,14.20
2019-05-21T02:19:13.141Z,14.20
2019-05-21T02:21:38.280Z,14.20
2019-05-21T02:24:04.299Z,14.10
2019-05-21T02:26:29.422Z,14.10
2019-05-21T02:28:54.570Z,14.10
2019-05-21T02:31:19.692Z,14.10
2019-05-21T02:33:44.831Z,14.10
2019-05-21T02:36:10.039Z,14.10
2019-05-21T02:38:35.175Z,14.00
2019-05-21T02:41:00.303Z,14.10
2019-05-21T02:43:25.733Z,14.00
2019-05-21T02:45:50.853Z,14.00
2019-05-21T02:48:15.966Z,14.00
2019-05-21T02:50:41.312Z,14.00
2019-05-21T02:53:06.442Z,14.00
2019-05-21T02:55:31.583Z,14.00
2019-05-21T02:57:56.707Z,14.00
2019-05-21T03:00:49.834Z,14.00
2019-05-21T03:03:16.256Z,14.00
2019-05-21T03:05:41.416Z,14.00
2019-05-21T03:08:06.533Z,14.10
2019-05-21T03:10:33.307Z,14.10
2019-05-21T03:12:58.691Z,14.10
2019-05-21T03:15:23.852Z,14.10
2019-05-21T03:17:48.966Z,14.10
2019-05-21T03:20:14.398Z,14.10
2019-05-21T03:22:39.548Z,14.20
2019-05-21T03:25:04.994Z,14.20
2019-05-21T03:27:30.146Z,14.20
2019-05-21T03:29:56.007Z,14.30
2019-05-21T03:32:21.163Z,14.30
2019-05-21T03:34:46.654Z,14.30
2019-05-21T03:37:11.883Z,14.30
2019-05-21T03:39:37.003Z,14.40
2019-05-21T03:42:02.235Z,14.40
2019-05-21T03:44:27.403Z,14.50
2019-05-21T03:46:53.285Z,14.50
2019-05-21T03:49:20.059Z,14.50
2019-05-21T03:51:45.211Z,14.50
2019-05-21T03:54:10.355Z,14.60
2019-05-21T03:56:35.478Z,14.60
2019-05-21T03:59:00.632Z,14.60
2019-05-21T04:01:25.743Z,14.70
2019-05-21T04:03:50.883Z,14.70
2019-05-21T04:06:16.022Z,14.70
2019-05-21T04:08:41.166Z,14.80
2019-05-21T04:11:06.312Z,14.80
2019-05-21T04:13:31.406Z,14.90
2019-05-21T04:16:02.791Z,14.90
2019-05-21T04:18:41.657Z,15.00
2019-05-21T04:21:07.563Z,15.00
2019-05-21T04:23:32.673Z,15.00
2019-05-21T04:25:57.859Z,15.00
2019-05-21T04:28:22.990Z,15.00
2019-05-21T04:30:48.565Z,15.00
2019-05-21T04:33:13.963Z,15.00
2019-05-21T04:35:39.088Z,15.10
2019-05-21T04:38:04.270Z,15.10
2019-05-21T04:40:29.677Z,15.00
2019-05-21T04:42:54.823Z,15.00
2019-05-21T04:45:19.931Z,15.10
2019-05-21T04:47:45.085Z,15.10
2019-05-21T04:50:10.354Z,15.10
2019-05-21T04:52:35.497Z,15.10
2019-05-21T04:55:00.639Z,15.10
2019-05-21T04:57:25.766Z,15.20
2019-05-21T04:59:50.892Z,15.30
2019-05-21T05:02:15.986Z,15.40
2019-05-21T05:04:41.153Z,15.40
2019-05-21T05:07:06.276Z,15.50
2019-05-21T05:09:31.668Z,15.60
2019-05-21T05:11:56.845Z,15.70
2019-05-21T05:14:22.059Z,15.80
2019-05-21T05:16:47.179Z,15.80
2019-05-21T05:19:12.806Z,15.70
2019-05-21T05:21:37.943Z,15.70
2019-05-21T05:24:03.086Z,15.80
2019-05-21T05:26:28.222Z,15.90
2019-05-21T05:28:53.342Z,16.00
2019-05-21T05:31:18.486Z,16.10
2019-05-21T05:33:43.623Z,16.10
2019-05-21T05:36:08.856Z,16.10
2019-05-21T05:38:34.573Z,16.10
2019-05-21T05:40:59.683Z,16.30
2019-05-21T05:43:24.810Z,16.40
2019-05-21T05:45:51.478Z,16.40
2019-05-21T05:48:17.202Z,16.40
2019-05-21T05:50:44.026Z,16.60
2019-05-21T05:53:10.137Z,17.00
2019-05-21T05:55:35.254Z,17.10
2019-05-21T05:58:00.410Z,17.30
2019-05-21T06:00:25.834Z,17.50
2019-05-21T06:02:51.436Z,17.80
2019-05-21T06:05:17.862Z,18.00
2019-05-21T06:07:42.978Z,18.00
2019-05-21T06:10:08.320Z,17.90
2019-05-21T06:12:33.415Z,18.00
2019-05-21T06:14:58.827Z,18.10
2019-05-21T06:17:23.962Z,18.40
2019-05-21T06:19:49.060Z,18.60
2019-05-21T06:22:14.220Z,18.90
2019-05-21T06:24:39.318Z,19.50
2019-05-21T06:27:04.559Z,19.70
2019-05-21T06:29:29.696Z,20.20
2019-05-21T06:31:54.798Z,20.60
2019-05-21T06:34:19.911Z,21.00
2019-05-21T06:36:45.071Z,21.40
2019-05-21T06:39:10.277Z,21.50
2019-05-21T06:41:36.133Z,21.90
2019-05-21T06:44:02.351Z,22.00
2019-05-21T06:46:27.483Z,22.40
2019-05-21T06:48:52.677Z,22.30
2019-05-21T06:51:17.827Z,22.60
2019-05-21T06:53:42.976Z,23.00
2019-05-21T06:56:08.151Z,23.40
2019-05-21T06:58:33.305Z,23.40
2019-05-21T07:00:58.411Z,23.80
2019-05-21T07:03:23.554Z,23.90
2019-05-21T07:05:58.183Z,24.10
2019-05-21T07:08:15.429Z,24.30
2019-05-21T07:10:40.567Z,24.40
2019-05-21T07:13:05.676Z,24.60
2019-05-21T07:15:30.797Z,24.30
2019-05-21T07:17:55.902Z,24.30
2019-05-21T07:20:21.759Z,24.30
2019-05-21T07:22:46.973Z,24.40
2019-05-21T07:25:12.612Z,24.40
2019-05-21T07:27:37.707Z,24.30
2019-05-21T07:30:02.809Z,24.40
2019-05-21T07:32:28.027Z,24.60
2019-05-21T07:34:53.154Z,24.70
2019-05-21T07:37:19.209Z,24.70
2019-05-21T07:39:44.330Z,24.00
2019-05-21T07:42:09.451Z,24.00
2019-05-21T07:44:34.606Z,23.80
2019-05-21T07:46:59.754Z,23.90
2019-05-21T07:49:24.991Z,24.00
2019-05-21T07:51:50.134Z,23.90
2019-05-21T07:54:15.257Z,23.80
2019-05-21T07:56:40.387Z,23.70
2019-05-21T07:59:05.800Z,23.60
2019-05-21T08:01:31.618Z,23.80
2019-05-21T08:03:56.850Z,23.80
2019-05-21T08:06:22.258Z,23.50
2019-05-21T08:08:47.357Z,23.40
2019-05-21T08:11:12.609Z,23.30
2019-05-21T08:13:37.782Z,23.20
2019-05-21T08:16:02.887Z,23.30
2019-05-21T08:18:28.027Z,23.30
2019-05-21T08:20:53.127Z,23.40
2019-05-21T08:23:18.270Z,23.50
2019-05-21T08:25:43.378Z,23.60
2019-05-21T08:28:08.478Z,23.60
2019-05-21T08:30:33.603Z,23.70
2019-05-21T08:32:58.721Z,23.60
2019-05-21T08:35:23.950Z,23.80
2019-05-21T08:37:49.063Z,23.90
2019-05-21T08:40:14.806Z,23.80
2019-05-21T08:42:39.934Z,23.60
2019-05-21T08:45:06.358Z,23.60
2019-05-21T08:47:31.540Z,23.60
2019-05-21T08:49:56.701Z,23.60
2019-05-21T08:52:21.807Z,23.60
2019-05-21T08:54:56.039Z,23.70
2019-05-21T08:57:19.553Z,23.70
2019-05-21T08:59:44.699Z,23.60
2019-05-21T09:02:09.806Z,23.70
2019-05-21T09:04:45.848Z,23.70
2019-05-21T09:07:01.649Z,23.80
2019-05-21T09:09:27.327Z,23.90
2019-05-21T09:11:52.720Z,23.80
2019-05-21T09:14:18.020Z,23.90
2019-05-21T09:16:43.107Z,23.90
2019-05-21T09:19:08.562Z,24.00
2019-05-21T09:21:33.663Z,24.10
2019-05-21T09:23:59.937Z,24.00
2019-05-21T09:26:26.207Z,23.90
2019-05-21T09:28:51.334Z,24.10
2019-05-21T09:31:16.462Z,23.90
2019-05-21T09:33:41.584Z,23.90
2019-05-21T09:36:06.691Z,24.10
2019-05-21T09:38:31.791Z,24.20
2019-05-21T09:40:57.729Z,23.90
2019-05-21T09:43:22.818Z,24.10
2019-05-21T09:45:47.922Z,24.20
2019-05-21T09:48:13.050Z,24.30
2019-05-21T09:50:38.453Z,24.30
2019-05-21T09:53:03.662Z,24.30
2019-05-21T09:55:28.769Z,24.50
2019-05-21T09:58:00.533Z,24.80
2019-05-21T10:01:01.053Z,24.90
2019-05-21T10:03:28.530Z,24.80
2019-05-21T10:05:53.618Z,25.00
2019-05-21T10:08:18.852Z,25.30
2019-05-21T10:10:44.010Z,25.40
2019-05-21T10:13:09.114Z,25.60
2019-05-21T10:15:34.232Z,25.60
2019-05-21T10:17:59.573Z,25.70
2019-05-21T10:20:24.949Z,25.90
2019-05-21T10:22:50.047Z,26.00
2019-05-21T10:25:16.107Z,25.60
2019-05-21T10:27:41.233Z,25.40
2019-05-21T10:30:07.266Z,25.60
2019-05-21T10:32:32.416Z,25.90
2019-05-21T10:34:58.534Z,26.20
2019-05-21T10:37:23.666Z,26.20
2019-05-21T10:39:48.943Z,26.10
2019-05-21T10:42:14.294Z,26.00
2019-05-21T10:44:39.390Z,25.90
2019-05-21T10:47:05.193Z,26.00
2019-05-21T10:49:30.299Z,26.10
2019-05-21T10:51:58.062Z,26.10
2019-05-21T10:54:23.194Z,26.30
2019-05-21T10:56:48.718Z,26.40
2019-05-21T10:59:14.853Z,26.70
2019-05-21T11:01:58.632Z,26.60
2019-05-21T11:04:37.990Z,26.40
2019-05-21T11:07:03.086Z,26.70
2019-05-21T11:09:36.023Z,26.90
2019-05-21T11:12:00.650Z,27.00
2019-05-21T11:14:29.405Z,27.00
2019-05-21T11:16:54.687Z,26.50
2019-05-21T11:19:19.778Z,26.60
2019-05-21T11:21:44.893Z,26.50
2019-05-21T11:24:10.025Z,26.40
2019-05-21T11:26:35.130Z,26.20
2019-05-21T11:29:00.498Z,26.40
2019-05-21T11:31:25.658Z,26.70
2019-05-21T11:33:50.774Z,26.90
2019-05-21T11:36:15.887Z,27.10
2019-05-21T11:38:41.509Z,27.10
2019-05-21T11:41:06.837Z,27.10
2019-05-21T11:43:33.030Z,27.20
2019-05-21T11:46:02.743Z,27.20
2019-05-21T11:48:25.854Z,27.70
2019-05-21T11:50:50.990Z,28.10
2019-05-21T11:53:17.125Z,28.40
2019-05-21T11:55:42.248Z,28.30
2019-05-21T11:58:07.343Z,27.40
2019-05-21T12:00:34.565Z,27.40
2019-05-21T12:02:59.671Z,28.10
2019-05-21T12:05:25.750Z,28.60
2019-05-21T12:07:50.890Z,29.00
2019-05-21T12:10:16.959Z,29.30
2019-05-21T12:12:42.086Z,29.00
2019-05-21T12:15:07.812Z,29.10
2019-05-21T12:17:32.935Z,29.30
2019-05-21T12:19:58.047Z,29.40
2019-05-21T12:22:23.258Z,29.60
2019-05-21T12:24:48.631Z,29.70
2019-05-21T12:27:13.762Z,29.50
2019-05-21T12:29:38.859Z,29.60
2019-05-21T12:32:04.028Z,29.50
2019-05-21T12:34:29.153Z,29.70
2019-05-21T12:36:54.521Z,29.90
2019-05-21T12:39:19.613Z,29.90
2019-05-21T12:41:44.931Z,30.30
2019-05-21T12:44:12.136Z,30.20
2019-05-21T12:46:37.547Z,30.20
2019-05-21T12:49:02.627Z,30.20
2019-05-21T12:51:27.766Z,30.20
2019-05-21T12:53:53.696Z,29.90
2019-05-21T12:56:19.036Z,30.00
2019-05-21T12:58:44.155Z,30.10
2019-05-21T13:01:09.247Z,30.20
2019-05-21T13:03:34.634Z,30.00
2019-05-21T13:05:59.993Z,29.70
2019-05-21T13:08:25.358Z,29.80
2019-05-21T13:10:51.642Z,29.30
2019-05-21T13:13:16.983Z,29.50
2019-05-21T13:15:42.102Z,29.20
2019-05-21T13:18:07.607Z,28.80
2019-05-21T13:20:32.802Z,28.90
2019-05-21T13:22:57.898Z,29.10
2019-05-21T13:25:23.232Z,29.00
2019-05-21T13:27:48.347Z,29.10
2019-05-21T13:30:13.590Z,29.10
2019-05-21T13:32:38.952Z,29.10
2019-05-21T13:35:05.966Z,28.80
2019-05-21T13:37:31.601Z,28.50
2019-05-21T13:39:57.014Z,28.80
2019-05-21T13:42:23.246Z,29.20
2019-05-21T13:44:48.330Z,29.30
2019-05-21T13:47:13.789Z,29.60
2019-05-21T13:49:38.898Z,29.90
2019-05-21T13:52:03.994Z,30.10
2019-05-21T13:54:29.551Z,30.10
2019-05-21T13:56:54.938Z,29.70
2019-05-21T13:59:20.489Z,29.50
2019-05-21T14:01:45.651Z,29.80
2019-05-21T14:04:10.885Z,30.30
2019-05-21T14:06:36.926Z,30.10
2019-05-21T14:09:02.010Z,30.50
2019-05-21T14:11:28.237Z,30.50
2019-05-21T14:13:54.433Z,30.70
2019-05-21T14:16:19.523Z,30.70
2019-05-21T14:18:44.942Z,30.50
2019-05-21T14:21:10.205Z,30.80
2019-05-21T14:23:35.701Z,31.20
2019-05-21T14:26:01.098Z,31.50
2019-05-21T14:28:27.155Z,31.50
2019-05-21T14:30:52.551Z,30.90
2019-05-21T14:33:18.357Z,30.50
2019-05-21T14:35:44.234Z,30.30
2019-05-21T14:38:16.778Z,30.20
2019-05-21T14:40:42.874Z,30.20
2019-05-21T14:43:07.988Z,29.90
2019-05-21T14:45:34.473Z,29.90
2019-05-21T14:47:59.958Z,30.00
2019-05-21T14:50:25.610Z,30.00
2019-05-21T14:52:52.312Z,29.90
2019-05-21T14:55:17.706Z,29.60
2019-05-21T14:57:44.850Z,29.40
2019-05-21T15:00:37.084Z,29.40
2019-05-21T15:03:02.178Z,29.30
2019-05-21T15:05:27.431Z,29.20
2019-05-21T15:07:54.136Z,29.10
2019-05-21T15:10:19.243Z,28.90
2019-05-21T15:12:44.604Z,28.80
2019-05-21T15:15:09.891Z,28.50
2019-05-21T15:17:35.014Z,28.30
2019-05-21T15:20:02.117Z,27.90
2019-05-21T15:22:27.244Z,27.60
2019-05-21T15:24:52.343Z,27.30
2019-05-21T15:27:17.747Z,26.90
2019-05-21T15:29:43.095Z,26.60
2019-05-21T15:32:08.541Z,26.60
2019-05-21T15:34:33.630Z,26.40
2019-05-21T15:36:58.741Z,26.20
2019-05-21T15:39:24.440Z,26.10
2019-05-21T15:41:49.804Z,26.00
2019-05-21T15:44:15.204Z,26.00
2019-05-21T15:46:49.551Z,25.90
2019-05-21T15:49:08.422Z,25.80
2019-05-21T15:51:33.514Z,25.80
2019-05-21T15:53:58.624Z,25.70
2019-05-21T15:56:23.770Z,25.60
2019-05-21T15:58:49.939Z,25.40
2019-05-21T16:01:16.165Z,25.20
2019-05-21T16:03:41.256Z,25.10
2019-05-21T16:06:09.805Z,24.90
2019-05-21T16:08:35.114Z,24.90
2019-05-21T16:11:00.323Z,24.90
2019-05-21T16:13:25.477Z,24.90
2019-05-21T16:15:51.638Z,24.80
2019-05-21T16:18:17.985Z,24.90
2019-05-21T16:20:43.092Z,24.90
2019-05-21T16:23:08.855Z,24.70
2019-05-21T16:25:33.989Z,24.70
2019-05-21T16:27:59.098Z,24.60
2019-05-21T16:30:24.463Z,24.70
2019-05-21T16:32:49.926Z,24.70
2019-05-21T16:35:15.130Z,24.60
2019-05-21T16:37:40.828Z,24.70
2019-05-21T16:40:06.574Z,24.50
2019-05-21T16:42:31.766Z,24.50
2019-05-21T16:44:56.886Z,24.40
2019-05-21T16:47:22.966Z,24.50
2019-05-21T16:49:48.290Z,24.50
2019-05-21T16:52:13.559Z,24.40
2019-05-21T16:54:40.066Z,24.40
2019-05-21T16:57:05.279Z,24.40
2019-05-21T16:59:31.302Z,24.30
2019-05-21T17:01:57.798Z,24.30
2019-05-21T17:04:22.886Z,24.30
2019-05-21T17:06:48.017Z,24.30
2019-05-21T17:09:13.590Z,24.20
2019-05-21T17:11:38.705Z,24.20
2019-05-21T17:14:04.677Z,24.10
2019-05-21T17:16:31.556Z,24.10
2019-05-21T17:18:56.666Z,24.00
2019-05-21T17:21:21.758Z,24.00
2019-05-21T17:23:46.895Z,23.90
2019-05-21T17:26:11.989Z,23.80
2019-05-21T17:28:37.826Z,23.80
2019-05-21T17:31:03.029Z,23.70
2019-05-21T17:33:29.713Z,23.60
2019-05-21T17:35:54.841Z,23.50
2019-05-21T17:38:24.264Z,23.50
2019-05-21T17:40:47.890Z,23.40
2019-05-21T17:43:13.018Z,23.30
2019-05-21T17:45:40.390Z,23.20
2019-05-21T17:48:05.624Z,23.20
2019-05-21T17:50:32.166Z,23.10
2019-05-21T17:52:57.274Z,23.10
2019-05-21T17:55:22.418Z,23.10
2019-05-21T17:57:47.961Z,23.00
2019-05-21T18:00:16.365Z,23.00
2019-05-21T18:02:41.552Z,23.00
2019-05-21T18:05:08.436Z,22.90
2019-05-21T18:07:35.026Z,22.90
2019-05-21T18:10:00.560Z,22.80
2019-05-21T18:12:32.147Z,22.70
2019-05-21T18:14:54.556Z,22.70
2019-05-21T18:17:20.331Z,22.60
2019-05-21T18:19:46.067Z,22.60
2019-05-21T18:22:13.286Z,22.50
2019-05-21T18:24:39.170Z,22.40
2019-05-21T18:27:04.627Z,22.30
2019-05-21T18:29:30.198Z,22.20
2019-05-21T18:31:55.325Z,22.10
2019-05-21T18:34:21.387Z,22.00
2019-05-21T18:36:46.827Z,22.00
2019-05-21T18:39:11.945Z,21.90
2019-05-21T18:41:37.146Z,21.90
2019-05-21T18:44:02.435Z,21.80
2019-05-21T18:46:27.592Z,21.70
2019-05-21T18:48:52.673Z,21.70
2019-05-21T18:51:17.781Z,21.60
2019-05-21T18:53:42.975Z,21.60
2019-05-21T18:56:08.226Z,21.50
2019-05-21T18:58:33.722Z,21.50
2019-05-21T19:00:58.818Z,21.40
2019-05-21T19:03:25.755Z,21.30
2019-05-21T19:05:50.723Z,21.20
2019-05-21T19:08:16.953Z,21.10
2019-05-21T19:10:42.380Z,21.10
2019-05-21T19:13:07.640Z,21.00
2019-05-21T19:15:32.899Z,20.90
2019-05-21T19:17:58.233Z,20.80
2019-05-21T19:20:23.354Z,20.80
2019-05-21T19:22:49.822Z,20.70
2019-05-21T19:25:15.956Z,20.70
2019-05-21T19:27:41.045Z,20.60
2019-05-21T19:30:07.067Z,20.60
2019-05-21T19:32:32.239Z,20.50
2019-05-21T19:34:57.607Z,20.50
2019-05-21T19:37:22.831Z,20.50
2019-05-21T19:39:47.926Z,20.40
2019-05-21T19:42:13.141Z,20.40
2019-05-21T19:44:38.486Z,20.30
2019-05-21T19:47:03.577Z,20.20
2019-05-21T19:49:28.689Z,20.20
2019-05-21T19:51:54.034Z,20.10
2019-05-21T19:54:19.366Z,20.10
2019-05-21T19:56:44.584Z,20.10
2019-05-21T19:59:10.338Z,20.00
2019-05-21T20:01:35.842Z,20.00
2019-05-21T20:04:01.538Z,20.00
2019-05-21T20:06:27.035Z,19.90
2019-05-21T20:08:52.598Z,19.90
2019-05-21T20:11:18.129Z,19.80
2019-05-21T20:13:43.325Z,19.70
2019-05-21T20:16:10.339Z,19.60
2019-05-21T20:18:35.495Z,19.50
2019-05-21T20:21:01.037Z,19.40
2019-05-21T20:23:26.954Z,19.40
2019-05-21T20:25:56.424Z,19.40
2019-05-21T20:28:20.792Z,19.40
2019-05-21T20:30:46.655Z,19.30
2019-05-21T20:33:11.871Z,19.30
2019-05-21T20:35:38.846Z,19.20
2019-05-21T20:38:04.268Z,19.10
2019-05-21T20:40:30.470Z,19.10
2019-05-21T20:42:55.694Z,19.10
2019-05-21T20:45:21.617Z,19.10
2019-05-21T20:47:47.127Z,19.00
2019-05-21T20:50:13.139Z,18.90
2019-05-21T20:52:39.246Z,18.90
2019-05-21T20:55:05.270Z,18.80
2019-05-21T20:57:30.611Z,18.70
2019-05-21T20:59:56.078Z,18.50
2019-05-21T21:02:21.802Z,18.50
2019-05-21T21:04:47.287Z,18.40
2019-05-21T21:07:13.035Z,18.40
2019-05-21T21:09:38.902Z,18.30
2019-05-21T21:12:06.033Z,18.30
2019-05-21T21:14:31.928Z,18.30
2019-05-21T21:16:59.491Z,18.20
2019-05-21T21:19:24.657Z,18.20
2019-05-21T21:21:50.053Z,18.00
2019-05-21T21:24:15.319Z,18.00
2019-05-21T21:26:40.602Z,18.00
2019-05-21T21:29:06.991Z,17.90
2019-05-21T21:31:32.283Z,17.80
2019-05-21T21:33:57.530Z,17.80
2019-05-21T21:36:23.703Z,17.70
2019-05-21T21:38:49.229Z,17.70
2019-05-21T21:41:16.217Z,17.60
2019-05-21T21:43:41.825Z,17.60
2019-05-21T21:46:07.188Z,17.70
2019-05-21T21:48:32.512Z,17.60
2019-05-21T21:50:58.783Z,17.60
2019-05-21T21:53:24.299Z,17.60
2019-05-21T21:55:49.390Z,17.50
2019-05-21T21:58:15.465Z,17.50
2019-05-21T22:01:24.793Z,17.40
2019-05-21T22:03:50.495Z,17.40
2019-05-21T22:06:18.111Z,17.40
2019-05-21T22:08:43.488Z,17.40
2019-05-21T22:11:08.832Z,17.50
2019-05-21T22:13:34.293Z,17.40
2019-05-21T22:16:00.165Z,17.40
2019-05-21T22:18:26.136Z,17.40
2019-05-21T22:20:51.548Z,17.40
2019-05-21T22:23:16.766Z,17.40
2019-05-21T22:25:43.023Z,17.40
2019-05-21T22:28:08.154Z,17.50
2019-05-21T22:30:33.815Z,17.50
2019-05-21T22:32:58.975Z,17.50
2019-05-21T22:35:24.250Z,17.50
2019-05-21T22:37:49.994Z,17.50
2019-05-21T22:40:16.094Z,17.50
2019-05-21T22:42:41.242Z,17.50
2019-05-21T22:45:09.124Z,17.50
2019-05-21T22:47:35.011Z,17.50
2019-05-21T22:50:00.421Z,17.60
2019-05-21T22:52:25.506Z,17.60
2019-05-21T22:54:50.630Z,17.60
2019-05-21T22:57:15.735Z,17.60
2019-05-21T22:59:40.966Z,17.60
2019-05-21T23:02:08.993Z,17.60
2019-05-21T23:04:34.193Z,17.60
2019-05-21T23:07:02.386Z,17.60
2019-05-21T23:09:27.717Z,17.60
2019-05-21T23:11:53.091Z,17.60
2019-05-21T23:14:18.196Z,17.60
2019-05-21T23:16:44.066Z,17.60
2019-05-21T23:19:11.710Z,17.50
2019-05-21T23:21:41.414Z,17.50
2019-05-21T23:24:13.222Z,17.50
2019-05-21T23:26:38.326Z,17.50
2019-05-21T23:29:04.429Z,17.50
2019-05-21T23:31:31.243Z,17.50
2019-05-21T23:33:57.807Z,17.50
2019-05-21T23:36:24.072Z,17.40
2019-05-21T23:38:50.632Z,17.40
2019-05-21T23:41:16.238Z,17.40
2019-05-21T23:43:41.418Z,17.40
2019-05-21T23:46:07.530Z,17.40
2019-05-21T23:48:32.838Z,17.40
2019-05-21T23:50:58.296Z,17.30
2019-05-21T23:53:23.407Z,17.30
2019-05-21T23:55:48.537Z,17.30
2019-05-21T23:58:14.263Z,17.20
